DCA weather

Ronald Reagan Washington National Airport
Washington, District of Columbia, United States

Public forecast

Using degrees Fahrenheit for public forecast. Weather courtesy of forecast.io.

METAR (pilot weather report)

Retrieved 2017/08/16 19:52 UTC (1 hour ago):

KDCA 161952Z 29009KT 10SM FEW050 SCT150 BKN250 33/19 A2998 RMK AO2 SLP151 T03280194

TAF (pilot weather forecast)

Retrieved 2017/08/16 18:22 UTC (3 hours ago):

TAF KDCA 161720Z 1618/1718 34004KT P6SM FEW050 SCT150 FM170800 VRB03KT P6SM SCT040 BKN110